This is the latest recevied weather packets stored in our database for station/object KM4KBD. If no packets are shown the sender has not sent any weather packets the latest 10 day(s).
| Time | Temp. | Humidity | Pressure | Rain* | Wind** | Luminosity | Snow |
|---|---|---|---|---|---|---|---|
| 1778101241 | 15.56° C | 74% | 1018.5 hPa | 0 mm | - | 60 W/m² | - |
| 1778100938 | 16.11° C | 72% | 1018.5 hPa | 0 mm | - | 91 W/m² | - |
| 1778100633 | 16.11° C | 72% | 1018.4 hPa | 0 mm | - | 138 W/m² | - |
| 1778100331 | 16.67° C | 69% | 1018.4 hPa | 0 mm | - | 155 W/m² | - |
| 1778100028 | 16.67° C | 73% | 1018.1 hPa | 0 mm | - | 190 W/m² | - |
| 1778099726 | 16.67° C | 73% | 1018.6 hPa | 0 mm | - | 169 W/m² | - |
| 1778099422 | 16.67° C | 71% | 1018.4 hPa | 0 mm | - | 169 W/m² | - |
| 1778099120 | 16.67° C | 71% | 1018.7 hPa | 0 mm | - | 179 W/m² | - |
| 1778098816 | 16.11° C | 72% | 1018.7 hPa | 0 mm | - | 210 W/m² | - |
| 1778098514 | 16.67° C | 71% | 1018.7 hPa | 0 mm | - | 137 W/m² | - |
| 1778098210 | 16.11° C | 72% | 1018.7 hPa | 0 mm | - | 356 W/m² | - |
| 1778097906 | 16.67° C | 73% | 1019 hPa | 0 mm | - | 278 W/m² | - |
| 1778097603 | 15.56° C | 74% | 1019 hPa | 0 mm | - | 313 W/m² | - |
| 1778097301 | 16.11° C | 74% | 1019.1 hPa | 0 mm | - | 215 W/m² | - |
| 1778096996 | 15.56° C | 75% | 1019.1 hPa | 0 mm | - | 240 W/m² | - |
| 1778096694 | 15.56° C | 75% | 1019.1 hPa | 0 mm | - | 264 W/m² | - |
| 1778096390 | 16.11° C | 74% | 1019.1 hPa | 0 mm | - | 234 W/m² | - |
| 1778096088 | 15.56° C | 73% | 1019.1 hPa | 0 mm | - | 252 W/m² | - |
| 1778095784 | 15.56° C | 73% | 1018.8 hPa | 0 mm | - | 211 W/m² | - |
| 1778095482 | 15.56° C | 74% | 1019.1 hPa | 0 mm | - | 234 W/m² | - |
| 1778095178 | 15.56° C | 74% | 1018.7 hPa | 0 mm | - | 207 W/m² | - |
| 1778094875 | 16.11° C | 71% | 1018.8 hPa | 0 mm | - | 232 W/m² | - |
| 1778094571 | 16.11° C | 72% | 1018.8 hPa | 0 mm | - | 255 W/m² | - |
| 1778094268 | 16.11° C | 72% | 1018.7 hPa | 0 mm | - | 259 W/m² | - |
| 1778093965 | 16.11° C | 71% | 1019.1 hPa | 0 mm | - | 307 W/m² | - |
* Rain latest hour (hover to see other rain measurements)
** Current wind speed in m/s (hover to see current wind gust speed)